createdAt,value
2018-02-18T00:00:50.367Z,96.30
2018-02-18T00:03:17.862Z,96.40
2018-02-18T00:05:46.142Z,96.50
2018-02-18T00:08:13.643Z,96.50
2018-02-18T00:10:41.162Z,96.50
2018-02-18T00:13:08.654Z,96.50
2018-02-18T00:15:36.159Z,96.50
2018-02-18T00:18:04.438Z,96.60
2018-02-18T00:20:32.703Z,96.50
2018-02-18T00:23:00.223Z,96.50
2018-02-18T00:25:27.719Z,96.70
2018-02-18T00:27:55.210Z,96.70
2018-02-18T00:30:22.730Z,96.70
2018-02-18T00:32:50.228Z,96.80
2018-02-18T00:35:17.750Z,96.80
2018-02-18T00:37:45.241Z,96.80
2018-02-18T00:40:12.743Z,96.90
2018-02-18T00:42:40.262Z,96.90
2018-02-18T00:45:07.758Z,97.00
2018-02-18T00:47:35.274Z,97.00
2018-02-18T00:50:02.770Z,96.90
2018-02-18T00:52:30.275Z,96.90
2018-02-18T00:54:58.558Z,97.00
2018-02-18T00:57:26.820Z,97.00
2018-02-18T00:59:55.106Z,97.00
2018-02-18T01:02:23.374Z,97.00
2018-02-18T01:04:51.634Z,97.00
2018-02-18T01:07:19.154Z,97.00
2018-02-18T01:09:46.650Z,97.00
2018-02-18T01:12:14.171Z,97.10
2018-02-18T01:14:41.662Z,97.10
2018-02-18T01:17:09.159Z,97.20
2018-02-18T01:19:36.678Z,97.20
2018-02-18T01:22:04.183Z,97.20
2018-02-18T01:24:31.704Z,97.20
2018-02-18T01:26:59.199Z,97.30
2018-02-18T01:29:26.690Z,97.20
2018-02-18T01:31:54.206Z,97.40
2018-02-18T01:34:21.698Z,97.40
2018-02-18T01:36:49.218Z,97.40
2018-02-18T01:39:17.479Z,97.40
2018-02-18T01:41:45.768Z,97.40
2018-02-18T01:44:14.026Z,97.40
2018-02-18T01:46:42.303Z,97.50
2018-02-18T01:49:09.823Z,97.40
2018-02-18T01:51:37.326Z,97.50
2018-02-18T01:54:05.607Z,97.50
2018-02-18T01:56:33.875Z,97.60
2018-02-18T01:59:01.395Z,97.50
2018-02-18T02:01:28.893Z,97.60
2018-02-18T02:03:56.391Z,97.60
2018-02-18T02:06:23.910Z,97.60
2018-02-18T02:08:52.178Z,97.70
2018-02-18T02:11:19.694Z,97.60
2018-02-18T02:13:47.191Z,97.60
2018-02-18T02:16:14.710Z,97.60
2018-02-18T02:18:42.207Z,97.70
2018-02-18T02:21:09.706Z,97.80
2018-02-18T02:23:37.230Z,97.80
2018-02-18T02:26:05.514Z,97.90
2018-02-18T02:28:33.803Z,97.90
2018-02-18T02:31:02.066Z,97.90
2018-02-18T02:33:30.630Z,98.00
2018-02-18T02:35:58.132Z,98.00
2018-02-18T02:38:25.644Z,98.10
2018-02-18T02:40:53.175Z,98.10
2018-02-18T02:43:20.675Z,98.10
2018-02-18T02:45:48.198Z,98.20
2018-02-18T02:48:15.704Z,98.10
2018-02-18T02:50:43.990Z,98.20
2018-02-18T02:53:12.255Z,98.30
2018-02-18T02:55:40.519Z,98.50
2018-02-18T02:58:08.043Z,98.40
2018-02-18T03:00:35.550Z,98.70
2018-02-18T03:03:03.847Z,99.10
2018-02-18T03:05:31.359Z,99.10
2018-02-18T03:07:58.883Z,99.10
2018-02-18T03:10:26.395Z,99.10
2018-02-18T03:12:53.894Z,99.20
2018-02-18T03:15:21.423Z,99.40
2018-02-18T03:17:49.695Z,99.50
2018-02-18T03:20:18.000Z,99.60
2018-02-18T03:22:45.498Z,99.60
2018-02-18T03:25:13.023Z,99.50
2018-02-18T03:27:40.530Z,99.40
2018-02-18T03:30:08.032Z,99.40
2018-02-18T03:32:35.559Z,99.50
2018-02-18T03:35:03.830Z,99.40
2018-02-18T03:37:31.350Z,99.60
2018-02-18T03:39:58.850Z,99.70
2018-02-18T03:42:26.374Z,99.80
2018-02-18T03:44:53.879Z,99.80
2018-02-18T03:47:22.146Z,99.70
2018-02-18T03:49:50.434Z,99.80
2018-02-18T03:52:18.702Z,99.60
2018-02-18T03:54:47.003Z,99.60
2018-02-18T03:57:14.510Z,99.60
2018-02-18T03:59:42.799Z,99.90
2018-02-18T04:02:10.306Z,99.60
2018-02-18T04:04:37.811Z,99.70
2018-02-18T04:07:05.339Z,99.80
2018-02-18T04:09:32.838Z,99.90
2018-02-18T04:12:01.156Z,99.90
2018-02-18T04:14:28.662Z,99.90
2018-02-18T04:16:56.191Z,99.90
2018-02-18T04:19:23.699Z,99.90
2018-02-18T04:21:51.970Z,99.90
2018-02-18T04:24:19.494Z,99.90
2018-02-18T04:26:46.999Z,99.90
2018-02-18T04:29:15.294Z,99.80
2018-02-18T04:31:42.795Z,99.80
2018-02-18T04:34:10.319Z,99.70
2018-02-18T04:36:37.818Z,99.80
2018-02-18T04:39:05.347Z,99.80
2018-02-18T04:41:32.847Z,99.80
2018-02-18T04:44:00.346Z,99.90
2018-02-18T04:46:27.871Z,99.90
2018-02-18T04:48:55.382Z,99.90
2018-02-18T04:51:22.910Z,99.90
2018-02-18T04:53:51.178Z,99.90
2018-02-18T04:56:19.471Z,99.90
2018-02-18T04:58:47.006Z,99.90
2018-02-18T05:01:14.490Z,99.90
2018-02-18T05:03:42.014Z,99.90
2018-02-18T05:06:09.522Z,99.90
2018-02-18T05:08:37.048Z,99.90
2018-02-18T05:11:05.315Z,99.90
2018-02-18T05:13:33.602Z,99.90
2018-02-18T05:16:01.866Z,99.90
2018-02-18T05:18:30.134Z,99.90
2018-02-18T05:20:57.658Z,99.90
2018-02-18T05:23:25.158Z,99.90
2018-02-18T05:25:52.682Z,99.90
2018-02-18T05:28:20.183Z,99.90
2018-02-18T05:30:48.474Z,99.90
2018-02-18T05:33:16.839Z,99.90
2018-02-18T05:35:45.111Z,99.90
2018-02-18T05:38:13.403Z,99.90
2018-02-18T05:40:40.910Z,99.90
2018-02-18T05:43:08.434Z,99.90
2018-02-18T05:45:35.940Z,99.90
2018-02-18T05:48:03.471Z,99.90
2018-02-18T05:50:30.971Z,99.90
2018-02-18T05:52:58.479Z,99.90
2018-02-18T05:55:26.016Z,99.90
2018-02-18T05:57:53.518Z,99.90
2018-02-18T06:00:21.046Z,99.90
2018-02-18T06:02:48.547Z,99.90
2018-02-18T06:05:16.075Z,99.90
2018-02-18T06:07:43.579Z,99.90
2018-02-18T06:10:11.082Z,99.90
2018-02-18T06:12:38.610Z,99.90
2018-02-18T06:15:06.878Z,99.90
2018-02-18T06:17:34.402Z,99.90
2018-02-18T06:20:01.903Z,99.90
2018-02-18T06:22:30.194Z,99.90
2018-02-18T06:24:57.707Z,99.90
2018-02-18T06:27:25.214Z,99.90
2018-02-18T06:29:52.745Z,99.90
2018-02-18T06:32:20.251Z,99.90
2018-02-18T06:34:47.787Z,99.90
2018-02-18T06:37:15.294Z,99.90
2018-02-18T06:39:42.827Z,99.90
2018-02-18T06:42:10.326Z,99.90
2018-02-18T06:44:37.826Z,99.90
2018-02-18T06:47:05.346Z,99.90
2018-02-18T06:49:32.854Z,99.90
2018-02-18T06:52:00.378Z,99.90
2018-02-18T06:54:28.642Z,99.90
2018-02-18T06:56:56.167Z,99.90
2018-02-18T06:59:24.440Z,99.90
2018-02-18T07:01:51.938Z,99.90
2018-02-18T07:04:19.471Z,99.90
2018-02-18T07:06:46.981Z,99.90
2018-02-18T07:09:14.510Z,99.90
2018-02-18T07:11:42.012Z,99.90
2018-02-18T07:14:09.538Z,99.90
2018-02-18T07:16:37.043Z,99.90
2018-02-18T07:19:04.542Z,99.90
2018-02-18T07:21:32.070Z,99.90
2018-02-18T07:23:59.570Z,99.90
2018-02-18T07:26:27.094Z,99.90
2018-02-18T07:28:54.599Z,99.90
2018-02-18T07:31:22.894Z,99.90
2018-02-18T07:33:50.398Z,99.90
2018-02-18T07:36:17.903Z,99.80
2018-02-18T07:38:45.427Z,99.90
2018-02-18T07:41:12.927Z,99.80
2018-02-18T07:43:40.451Z,99.90
2018-02-18T07:46:07.951Z,99.80
2018-02-18T07:48:35.498Z,99.70
2018-02-18T07:51:03.006Z,99.50
2018-02-18T07:53:30.506Z,99.50
2018-02-18T07:55:58.794Z,99.40
2018-02-18T07:58:26.298Z,99.40
2018-02-18T08:00:53.827Z,99.50
2018-02-18T08:03:21.327Z,99.40
2018-02-18T08:05:48.851Z,99.20
2018-02-18T08:08:16.360Z,99.10
2018-02-18T08:10:43.861Z,99.10
2018-02-18T08:13:11.387Z,99.00
2018-02-18T08:15:39.654Z,98.80
2018-02-18T08:18:07.943Z,98.90
2018-02-18T08:20:36.206Z,98.50
2018-02-18T08:23:03.731Z,98.50
2018-02-18T08:25:31.241Z,98.30
2018-02-18T08:27:58.763Z,98.20
2018-02-18T08:30:26.291Z,98.20
2018-02-18T08:32:53.791Z,98.20
2018-02-18T08:35:21.315Z,98.00
2018-02-18T08:37:48.815Z,98.00
2018-02-18T08:40:16.339Z,97.80
2018-02-18T08:42:43.834Z,97.80
2018-02-18T08:45:12.103Z,97.20
2018-02-18T08:47:39.629Z,97.20
2018-02-18T08:50:07.127Z,96.90
2018-02-18T08:52:35.415Z,95.60
2018-02-18T08:55:03.684Z,94.90
2018-02-18T08:57:31.977Z,94.50
2018-02-18T08:59:59.475Z,94.50
2018-02-18T09:02:26.986Z,93.60
2018-02-18T09:04:55.286Z,91.40
2018-02-18T09:07:22.787Z,91.40
2018-02-18T09:09:50.306Z,84.30
2018-02-18T09:12:17.811Z,76.20
2018-02-18T09:14:45.335Z,69.20
2018-02-18T09:17:12.834Z,58.80
2018-02-18T09:19:40.359Z,51.20
2018-02-18T09:22:07.863Z,41.90
2018-02-18T09:24:36.131Z,38.20
2018-02-18T09:27:04.431Z,35.70
2018-02-18T09:29:31.938Z,35.50
2018-02-18T09:32:00.235Z,30.00
2018-02-18T09:34:27.745Z,30.00
2018-02-18T09:36:55.291Z,28.80
2018-02-18T09:39:22.805Z,28.10
2018-02-18T09:41:50.308Z,27.30
2018-02-18T09:44:17.839Z,27.30
2018-02-18T09:46:46.107Z,26.20
2018-02-18T09:49:13.635Z,25.80
2018-02-18T09:51:41.135Z,25.40
2018-02-18T09:54:09.426Z,24.60
2018-02-18T09:56:37.694Z,25.40
2018-02-18T09:59:05.991Z,25.10
2018-02-18T10:01:33.500Z,25.00
2018-02-18T10:04:01.006Z,24.60
2018-02-18T10:06:28.539Z,24.20
2018-02-18T10:08:56.821Z,22.20
2018-02-18T10:11:25.114Z,21.80
2018-02-18T10:13:52.622Z,21.80
2018-02-18T10:16:20.150Z,22.40
2018-02-18T10:18:47.654Z,22.40
2018-02-18T10:21:15.168Z,21.90
2018-02-18T10:23:42.703Z,22.90
2018-02-18T10:26:10.981Z,23.40
2018-02-18T10:28:38.510Z,23.30
2018-02-18T10:31:07.518Z,24.30
2018-02-18T10:33:35.812Z,25.00
2018-02-18T10:36:04.086Z,25.10
2018-02-18T10:38:32.363Z,24.80
2018-02-18T10:40:59.898Z,24.80
2018-02-18T10:43:27.403Z,24.20
2018-02-18T10:45:54.934Z,23.80
2018-02-18T10:48:23.216Z,22.50
2018-02-18T10:50:50.747Z,22.40
2018-02-18T10:53:18.251Z,21.50
2018-02-18T10:55:45.759Z,21.10
2018-02-18T10:58:13.292Z,21.00
2018-02-18T11:00:40.806Z,20.40
2018-02-18T11:03:08.342Z,20.60
2018-02-18T11:05:35.846Z,21.40
2018-02-18T11:08:03.378Z,22.10
2018-02-18T11:10:31.651Z,24.80
2018-02-18T11:12:59.175Z,24.70
2018-02-18T11:15:26.702Z,25.50
2018-02-18T11:17:54.213Z,25.90
2018-02-18T11:20:21.746Z,26.60
2018-02-18T11:22:49.258Z,27.00
2018-02-18T11:25:16.759Z,27.20
2018-02-18T11:27:44.292Z,28.10
2018-02-18T11:30:11.803Z,28.60
2018-02-18T11:32:39.335Z,28.70
2018-02-18T11:35:06.843Z,27.70
2018-02-18T11:37:35.134Z,26.90
2018-02-18T11:40:02.638Z,26.80
2018-02-18T11:42:30.175Z,25.60
2018-02-18T11:44:57.683Z,25.20
2018-02-18T11:47:25.951Z,23.50
2018-02-18T11:49:53.475Z,23.40
2018-02-18T11:52:21.022Z,23.00
2018-02-18T11:54:48.527Z,23.40
2018-02-18T11:57:16.035Z,23.20
2018-02-18T11:59:43.562Z,22.20
2018-02-18T12:02:11.838Z,22.90
2018-02-18T12:04:40.110Z,22.30
2018-02-18T12:07:08.407Z,22.20
2018-02-18T12:09:35.924Z,22.10
2018-02-18T12:12:03.455Z,22.20
2018-02-18T12:14:30.959Z,22.90
2018-02-18T12:16:59.255Z,25.70
2018-02-18T12:19:26.766Z,25.70
2018-02-18T12:21:54.267Z,27.50
2018-02-18T12:24:22.559Z,30.30
2018-02-18T12:26:50.063Z,30.80
2018-02-18T12:29:17.579Z,32.50
2018-02-18T12:31:45.097Z,34.20
2018-02-18T12:34:12.624Z,34.70
2018-02-18T12:36:40.151Z,36.00
2018-02-18T12:39:07.655Z,36.40
2018-02-18T12:41:35.179Z,38.00
2018-02-18T12:44:03.103Z,39.50
2018-02-18T12:46:31.402Z,42.50
2018-02-18T12:48:58.910Z,43.00
2018-02-18T12:51:26.411Z,42.80
2018-02-18T12:53:54.706Z,41.70
2018-02-18T12:56:22.219Z,41.60
2018-02-18T12:58:49.746Z,41.90
2018-02-18T13:01:17.252Z,42.30
2018-02-18T13:03:45.542Z,41.30
2018-02-18T13:06:13.822Z,39.40
2018-02-18T13:08:41.334Z,39.40
2018-02-18T13:11:08.858Z,41.30
2018-02-18T13:13:36.366Z,39.20
2018-02-18T13:16:03.894Z,41.30
2018-02-18T13:18:31.426Z,43.00
2018-02-18T13:20:58.932Z,44.40
2018-02-18T13:23:26.459Z,44.30
2018-02-18T13:25:53.954Z,43.30
2018-02-18T13:28:21.483Z,43.30
2018-02-18T13:30:48.982Z,43.60
2018-02-18T13:33:18.010Z,47.20
2018-02-18T13:35:45.529Z,47.20
2018-02-18T13:38:13.030Z,48.90
2018-02-18T13:40:40.554Z,50.70
2018-02-18T13:43:08.814Z,52.00
2018-02-18T13:45:36.340Z,52.30
2018-02-18T13:48:03.842Z,52.30
2018-02-18T13:50:31.363Z,51.90
2018-02-18T13:52:58.872Z,49.80
2018-02-18T13:55:27.138Z,49.80
2018-02-18T13:57:54.662Z,49.80
2018-02-18T14:00:22.162Z,49.80
2018-02-18T14:02:50.454Z,46.80
2018-02-18T14:05:18.725Z,46.40
2018-02-18T14:07:47.017Z,44.90
2018-02-18T14:10:14.521Z,44.90
2018-02-18T14:12:42.033Z,43.40
2018-02-18T14:15:09.563Z,43.00
2018-02-18T14:17:37.833Z,42.10
2018-02-18T14:20:05.362Z,42.20
2018-02-18T14:22:32.869Z,44.20
2018-02-18T14:25:01.154Z,47.10
2018-02-18T14:27:29.426Z,47.90
2018-02-18T14:29:57.686Z,49.90
2018-02-18T14:32:25.202Z,49.80
2018-02-18T14:34:52.703Z,50.60
2018-02-18T14:37:20.230Z,51.10
2018-02-18T14:39:47.738Z,51.70
2018-02-18T14:42:27.798Z,53.70
2018-02-18T14:45:07.062Z,53.70
2018-02-18T14:47:46.570Z,54.40
2018-02-18T14:50:26.562Z,55.30
2018-02-18T14:53:05.950Z,55.20
2018-02-18T14:55:46.086Z,56.10
2018-02-18T14:58:13.606Z,56.00
2018-02-18T15:00:41.150Z,56.00
2018-02-18T15:03:08.650Z,56.60
2018-02-18T15:05:36.166Z,57.50
2018-02-18T15:08:03.661Z,58.10
2018-02-18T15:10:31.179Z,57.60
2018-02-18T15:12:58.683Z,58.10
2018-02-18T15:15:26.207Z,58.20
2018-02-18T15:17:53.698Z,58.20
2018-02-18T15:20:21.197Z,58.10
2018-02-18T15:22:48.719Z,59.00
2018-02-18T15:25:16.222Z,59.60
2018-02-18T15:27:43.746Z,59.90
2018-02-18T15:30:11.248Z,60.80
2018-02-18T15:32:38.766Z,62.00
2018-02-18T15:35:06.266Z,62.50
2018-02-18T15:37:33.775Z,62.80
2018-02-18T15:40:01.294Z,64.30
2018-02-18T15:42:28.795Z,65.50
2018-02-18T15:44:56.335Z,65.70
2018-02-18T15:47:23.836Z,66.30
2018-02-18T15:49:52.126Z,68.30
2018-02-18T15:52:19.744Z,68.30
2018-02-18T15:54:47.139Z,71.10
2018-02-18T15:57:14.658Z,73.60
2018-02-18T15:59:42.154Z,74.20
2018-02-18T16:02:09.683Z,75.10
2018-02-18T16:04:37.190Z,76.10
2018-02-18T16:07:04.718Z,77.00
2018-02-18T16:09:32.995Z,78.50
2018-02-18T16:12:01.263Z,79.30
2018-02-18T16:14:29.554Z,79.80
2018-02-18T16:16:57.822Z,80.20
2018-02-18T16:19:26.107Z,81.20
2018-02-18T16:21:54.374Z,82.10
2018-02-18T16:24:22.660Z,83.10
2018-02-18T16:26:50.957Z,84.10
2018-02-18T16:29:18.458Z,84.10
2018-02-18T16:31:45.990Z,84.70
2018-02-18T16:34:13.483Z,84.80
2018-02-18T16:36:41.005Z,85.40
2018-02-18T16:39:08.528Z,85.90
2018-02-18T16:41:36.824Z,87.10
2018-02-18T16:44:04.327Z,87.00
2018-02-18T16:46:31.822Z,87.70
2018-02-18T16:49:00.110Z,88.50
2018-02-18T16:51:27.611Z,88.50
2018-02-18T16:53:55.135Z,88.90
2018-02-18T16:56:22.648Z,89.50
2018-02-18T16:58:50.174Z,89.90
2018-02-18T17:01:17.682Z,90.10
2018-02-18T17:03:45.941Z,90.30
2018-02-18T17:06:13.462Z,90.30
2018-02-18T17:08:40.950Z,90.30
2018-02-18T17:11:08.471Z,90.40
2018-02-18T17:13:35.975Z,90.50
2018-02-18T17:16:03.514Z,90.60
2018-02-18T17:18:31.013Z,90.90
2018-02-18T17:20:59.283Z,91.30
2018-02-18T17:23:27.570Z,91.50
2018-02-18T17:25:55.834Z,91.80
2018-02-18T17:28:24.118Z,91.90
2018-02-18T17:30:52.383Z,92.00
2018-02-18T17:33:19.984Z,92.00
2018-02-18T17:35:47.435Z,92.00
2018-02-18T17:38:14.943Z,92.00
2018-02-18T17:40:42.472Z,92.20
2018-02-18T17:43:09.970Z,92.30
2018-02-18T17:45:37.496Z,92.40
2018-02-18T17:48:05.002Z,92.40
2018-02-18T17:50:33.290Z,92.50
2018-02-18T17:53:00.795Z,92.40
2018-02-18T17:55:28.335Z,92.40
2018-02-18T17:57:55.834Z,92.40
2018-02-18T18:00:23.359Z,92.50
2018-02-18T18:02:50.866Z,92.50
2018-02-18T18:05:19.158Z,92.80
2018-02-18T18:07:46.674Z,92.70
2018-02-18T18:10:14.177Z,92.60
2018-02-18T18:12:42.635Z,92.50
2018-02-18T18:15:10.152Z,92.40
2018-02-18T18:17:37.679Z,92.30
2018-02-18T18:20:05.178Z,92.30
2018-02-18T18:22:33.554Z,92.40
2018-02-18T18:25:01.054Z,92.40
2018-02-18T18:27:29.351Z,92.40
2018-02-18T18:29:56.871Z,92.60
2018-02-18T18:32:24.370Z,92.40
2018-02-18T18:34:51.897Z,92.30
2018-02-18T18:37:19.390Z,92.40
2018-02-18T18:39:46.963Z,92.50
2018-02-18T18:42:14.476Z,92.60
2018-02-18T18:44:42.006Z,92.60
2018-02-18T18:47:09.515Z,92.60
2018-02-18T18:49:37.773Z,92.70
2018-02-18T18:52:06.066Z,92.80
2018-02-18T18:54:34.326Z,92.70
2018-02-18T18:57:02.620Z,92.80
2018-02-18T18:59:30.126Z,92.70
2018-02-18T19:01:57.648Z,92.70
2018-02-18T19:04:25.138Z,92.80
2018-02-18T19:06:52.634Z,92.60
2018-02-18T19:09:20.935Z,92.60
2018-02-18T19:11:48.439Z,92.60
2018-02-18T19:14:15.972Z,92.60
2018-02-18T19:16:43.470Z,92.70
2018-02-18T19:19:10.991Z,92.90
2018-02-18T19:21:38.506Z,92.90
2018-02-18T19:24:06.796Z,93.00
2018-02-18T19:26:35.072Z,93.00
2018-02-18T19:29:03.326Z,92.90
2018-02-18T19:31:30.851Z,92.90
2018-02-18T19:33:58.360Z,92.80
2018-02-18T19:36:26.646Z,92.80
2018-02-18T19:38:54.146Z,92.80
2018-02-18T19:41:21.671Z,92.80
2018-02-18T19:43:49.166Z,92.90
2018-02-18T19:46:16.690Z,92.80
2018-02-18T19:48:44.194Z,92.80
2018-02-18T19:51:11.692Z,92.80
2018-02-18T19:53:39.983Z,92.90
2018-02-18T19:56:07.485Z,92.90
2018-02-18T19:58:35.054Z,92.90
2018-02-18T20:01:02.551Z,92.90
2018-02-18T20:03:30.079Z,92.90
2018-02-18T20:05:57.579Z,93.00
2018-02-18T20:08:25.108Z,93.00
2018-02-18T20:10:53.374Z,93.00
2018-02-18T20:13:20.875Z,92.90
2018-02-18T20:15:48.403Z,93.30
2018-02-18T20:18:16.666Z,93.70
2018-02-18T20:20:44.181Z,93.70
2018-02-18T20:23:11.683Z,94.10
2018-02-18T20:25:39.211Z,93.90
2018-02-18T20:28:06.714Z,94.10
2018-02-18T20:30:35.006Z,94.20
2018-02-18T20:33:02.530Z,94.10
2018-02-18T20:35:30.032Z,94.00
2018-02-18T20:37:57.558Z,94.00
2018-02-18T20:40:25.066Z,93.90
2018-02-18T20:42:52.594Z,93.90
2018-02-18T20:45:21.047Z,94.00
2018-02-18T20:47:48.582Z,94.00
2018-02-18T20:50:16.082Z,94.30
2018-02-18T20:52:44.646Z,94.40
2018-02-18T20:55:12.162Z,94.40
2018-02-18T20:57:39.656Z,94.50
2018-02-18T21:00:07.178Z,94.70
2018-02-18T21:02:34.673Z,94.70
2018-02-18T21:05:02.201Z,94.80
2018-02-18T21:07:29.694Z,94.70
2018-02-18T21:09:57.209Z,94.80
2018-02-18T21:12:24.710Z,94.90
2018-02-18T21:14:52.210Z,94.80
2018-02-18T21:17:19.734Z,94.70
2018-02-18T21:19:47.226Z,94.60
2018-02-18T21:22:14.749Z,94.80
2018-02-18T21:24:42.252Z,94.80
2018-02-18T21:27:09.771Z,94.90
2018-02-18T21:29:37.271Z,95.00
2018-02-18T21:32:04.796Z,95.10
2018-02-18T21:34:33.805Z,95.40
2018-02-18T21:37:01.321Z,95.30
2018-02-18T21:39:28.850Z,95.40
2018-02-18T21:41:56.366Z,95.50
2018-02-18T21:44:24.650Z,95.50
2018-02-18T21:46:52.918Z,95.80
2018-02-18T21:49:21.197Z,95.90
2018-02-18T21:51:49.462Z,95.80
2018-02-18T21:54:16.986Z,96.10
2018-02-18T21:56:44.490Z,95.80
2018-02-18T21:59:12.751Z,95.90
2018-02-18T22:01:40.280Z,95.90
2018-02-18T22:04:07.790Z,95.90
2018-02-18T22:06:36.074Z,95.80
2018-02-18T22:09:03.575Z,95.80
2018-02-18T22:11:31.099Z,95.80
2018-02-18T22:13:58.610Z,95.70
2018-02-18T22:16:26.107Z,95.60
2018-02-18T22:18:53.622Z,95.70
2018-02-18T22:21:21.139Z,95.70
2018-02-18T22:23:48.658Z,95.60
2018-02-18T22:26:16.160Z,95.70
2018-02-18T22:28:43.678Z,95.80
2018-02-18T22:31:11.171Z,95.70
2018-02-18T22:33:38.689Z,96.00
2018-02-18T22:36:06.194Z,95.70
2018-02-18T22:38:33.689Z,96.10
2018-02-18T22:41:01.210Z,96.40
2018-02-18T22:43:28.711Z,96.50
2018-02-18T22:45:56.249Z,96.20
2018-02-18T22:48:23.753Z,96.20
2018-02-18T22:50:52.041Z,96.20
2018-02-18T22:53:20.317Z,96.20
2018-02-18T22:55:47.842Z,96.20
2018-02-18T22:58:15.344Z,96.20
2018-02-18T23:00:43.175Z,96.20
2018-02-18T23:03:10.711Z,96.20
2018-02-18T23:05:43.846Z,96.30
2018-02-18T23:08:12.166Z,96.30
2018-02-18T23:10:39.646Z,96.30
2018-02-18T23:13:07.166Z,96.20
2018-02-18T23:15:34.662Z,96.20
2018-02-18T23:18:02.181Z,96.30
2018-02-18T23:20:41.507Z,96.40
2018-02-18T23:23:09.038Z,96.50
2018-02-18T23:25:36.531Z,96.30
2018-02-18T23:28:04.038Z,96.30
2018-02-18T23:30:31.549Z,96.40
2018-02-18T23:32:59.050Z,96.40
2018-02-18T23:35:26.570Z,96.40
2018-02-18T23:37:54.069Z,96.70
2018-02-18T23:40:21.590Z,96.80
2018-02-18T23:42:49.085Z,96.90
2018-02-18T23:45:16.583Z,96.80
2018-02-18T23:47:44.102Z,96.80
2018-02-18T23:50:11.605Z,96.90
2018-02-18T23:52:39.127Z,96.90
2018-02-18T23:55:06.626Z,97.10
2018-02-18T23:57:34.142Z,97.10
